createdAt,value
2016-12-11T00:00:57.134Z,0
2016-12-11T00:03:28.958Z,0
2016-12-11T00:06:00.813Z,0
2016-12-11T00:08:32.653Z,0
2016-12-11T00:11:04.507Z,0
2016-12-11T00:13:36.365Z,0
2016-12-11T00:16:08.195Z,0
2016-12-11T00:18:40.075Z,0
2016-12-11T00:21:11.935Z,0
2016-12-11T00:23:43.773Z,0
2016-12-11T00:26:15.610Z,0
2016-12-11T00:28:47.474Z,0
2016-12-11T00:31:19.320Z,0
2016-12-11T00:33:51.150Z,0
2016-12-11T00:36:22.995Z,0
2016-12-11T00:38:54.840Z,0
2016-12-11T00:41:26.699Z,0
2016-12-11T00:43:58.538Z,0
2016-12-11T00:46:30.391Z,0
2016-12-11T00:49:02.229Z,0
2016-12-11T00:51:34.061Z,0
2016-12-11T00:54:05.909Z,0
2016-12-11T00:56:37.739Z,0
2016-12-11T00:59:09.590Z,0
2016-12-11T01:01:41.442Z,0
2016-12-11T01:04:13.273Z,0
2016-12-11T01:06:45.110Z,0
2016-12-11T01:09:16.960Z,0
2016-12-11T01:11:48.814Z,0
2016-12-11T01:14:20.657Z,0
2016-12-11T01:16:52.545Z,0
2016-12-11T01:19:24.377Z,0
2016-12-11T01:21:56.209Z,0
2016-12-11T01:24:28.055Z,0
2016-12-11T01:26:59.900Z,0
2016-12-11T01:29:31.759Z,0
2016-12-11T01:32:03.611Z,0
2016-12-11T01:34:35.450Z,0
2016-12-11T01:37:07.327Z,0
2016-12-11T01:39:39.160Z,0
2016-12-11T01:42:10.992Z,0
2016-12-11T01:44:42.842Z,0
2016-12-11T01:47:14.678Z,0
2016-12-11T01:49:46.561Z,0
2016-12-11T01:52:18.404Z,0
2016-12-11T01:54:50.248Z,0
2016-12-11T01:57:22.098Z,0
2016-12-11T01:59:53.968Z,0
2016-12-11T02:02:25.821Z,0
2016-12-11T02:04:57.667Z,0
2016-12-11T02:07:29.506Z,0
2016-12-11T02:10:01.352Z,0
2016-12-11T02:12:33.196Z,0
2016-12-11T02:15:05.070Z,0
2016-12-11T02:17:36.907Z,0
2016-12-11T02:20:08.756Z,0
2016-12-11T02:22:40.607Z,0
2016-12-11T02:25:12.474Z,0
2016-12-11T02:27:44.321Z,0
2016-12-11T02:30:16.163Z,0
2016-12-11T02:32:48.017Z,0
2016-12-11T02:35:19.849Z,0
2016-12-11T02:37:51.698Z,0
2016-12-11T02:40:23.522Z,0
2016-12-11T02:42:55.348Z,0
2016-12-11T02:45:27.200Z,0
2016-12-11T02:47:59.020Z,0
2016-12-11T02:50:30.881Z,0
2016-12-11T02:53:02.740Z,0
2016-12-11T02:55:34.577Z,0
2016-12-11T02:58:06.433Z,0
2016-12-11T03:00:38.261Z,0
2016-12-11T03:03:10.108Z,0
2016-12-11T03:05:41.967Z,0
2016-12-11T03:08:13.796Z,0
2016-12-11T03:10:45.623Z,0
2016-12-11T03:13:17.466Z,0
2016-12-11T03:15:49.313Z,0
2016-12-11T03:18:21.145Z,0
2016-12-11T03:20:52.994Z,0
2016-12-11T03:23:24.847Z,0
2016-12-11T03:25:56.705Z,0
2016-12-11T03:28:28.537Z,0
2016-12-11T03:31:00.377Z,0
2016-12-11T03:33:32.232Z,0
2016-12-11T03:36:04.073Z,0
2016-12-11T03:38:35.924Z,0
2016-12-11T03:41:07.766Z,0
2016-12-11T03:43:39.595Z,0
2016-12-11T03:46:11.439Z,0
2016-12-11T03:48:43.343Z,0
2016-12-11T03:51:15.200Z,0
2016-12-11T03:53:47.044Z,0
2016-12-11T03:56:18.887Z,0
2016-12-11T03:58:50.724Z,0
2016-12-11T04:01:22.561Z,0
2016-12-11T04:03:54.405Z,0
2016-12-11T04:06:26.244Z,0
2016-12-11T04:08:58.083Z,0
2016-12-11T04:11:29.923Z,0
2016-12-11T04:14:01.751Z,0
2016-12-11T04:16:33.596Z,0
2016-12-11T04:19:05.475Z,0
2016-12-11T04:21:37.324Z,0
2016-12-11T04:24:09.178Z,0
2016-12-11T04:26:41.013Z,0
2016-12-11T04:29:12.835Z,0
2016-12-11T04:31:44.658Z,0
2016-12-11T04:34:16.502Z,0
2016-12-11T04:36:48.360Z,0
2016-12-11T04:39:20.195Z,0
2016-12-11T04:41:52.041Z,0
2016-12-11T04:44:23.878Z,0
2016-12-11T04:46:55.707Z,0
2016-12-11T04:49:27.612Z,0
2016-12-11T04:51:59.464Z,0
2016-12-11T04:54:31.317Z,0
2016-12-11T04:57:03.153Z,0
2016-12-11T04:59:34.992Z,0
2016-12-11T05:02:06.833Z,0
2016-12-11T05:04:38.664Z,0
2016-12-11T05:07:10.507Z,0
2016-12-11T05:09:42.369Z,0
2016-12-11T05:12:14.227Z,0
2016-12-11T05:14:46.058Z,0
2016-12-11T05:17:17.922Z,0
2016-12-11T05:19:50.153Z,0
2016-12-11T05:22:21.987Z,0
2016-12-11T05:24:53.829Z,0
2016-12-11T05:27:25.677Z,0
2016-12-11T05:29:57.539Z,0
2016-12-11T05:32:29.380Z,0
2016-12-11T05:35:01.210Z,0
2016-12-11T05:37:33.096Z,0
2016-12-11T05:40:04.926Z,0
2016-12-11T05:42:36.790Z,0
2016-12-11T05:45:08.663Z,0
2016-12-11T05:47:40.488Z,0
2016-12-11T05:50:12.376Z,0
2016-12-11T05:52:44.233Z,0
2016-12-11T05:55:16.081Z,0
2016-12-11T05:57:47.918Z,0
2016-12-11T06:00:19.767Z,0
2016-12-11T06:02:51.605Z,0
2016-12-11T06:05:23.431Z,0
2016-12-11T06:07:55.293Z,0
2016-12-11T06:10:27.140Z,0
2016-12-11T06:12:58.991Z,0
2016-12-11T06:15:30.840Z,0
2016-12-11T06:18:02.687Z,0
2016-12-11T06:20:34.575Z,0
2016-12-11T06:23:06.406Z,0
2016-12-11T06:25:38.241Z,41
2016-12-11T06:28:10.079Z,63
2016-12-11T06:30:41.976Z,68
2016-12-11T06:33:13.809Z,70
2016-12-11T06:35:45.643Z,3
2016-12-11T06:38:17.495Z,4
2016-12-11T06:40:49.332Z,3
2016-12-11T06:43:21.183Z,3
2016-12-11T06:45:53.038Z,3
2016-12-11T06:48:24.880Z,3
2016-12-11T06:50:56.985Z,3
2016-12-11T06:53:28.852Z,3
2016-12-11T06:56:00.705Z,3
2016-12-11T06:58:32.574Z,5
2016-12-11T07:01:04.426Z,6
2016-12-11T07:03:43.993Z,7
2016-12-11T07:06:19.812Z,9
2016-12-11T07:08:51.670Z,13
2016-12-11T07:11:23.519Z,17
2016-12-11T07:13:55.381Z,18
2016-12-11T07:16:27.233Z,22
2016-12-11T07:18:59.087Z,26
2016-12-11T07:21:30.958Z,38
2016-12-11T07:24:02.792Z,46
2016-12-11T07:26:34.639Z,61
2016-12-11T07:29:06.506Z,61
2016-12-11T07:31:38.342Z,71
2016-12-11T07:34:10.209Z,84
2016-12-11T07:36:42.065Z,80
2016-12-11T07:39:13.904Z,92
2016-12-11T07:41:45.753Z,128
2016-12-11T07:44:17.702Z,169
2016-12-11T07:46:49.554Z,241
2016-12-11T07:49:21.408Z,254
2016-12-11T07:51:53.267Z,223
2016-12-11T07:54:25.103Z,254
2016-12-11T07:56:56.938Z,284
2016-12-11T07:59:28.787Z,312
2016-12-11T08:02:00.632Z,411
2016-12-11T08:04:32.481Z,374
2016-12-11T08:07:04.338Z,332
2016-12-11T08:09:36.167Z,369
2016-12-11T08:12:08.255Z,436
2016-12-11T08:14:40.104Z,482
2016-12-11T08:17:11.947Z,474
2016-12-11T08:19:43.797Z,431
2016-12-11T08:22:15.657Z,357
2016-12-11T08:24:47.518Z,387
2016-12-11T08:27:19.613Z,463
2016-12-11T08:29:51.468Z,561
2016-12-11T08:32:23.328Z,584
2016-12-11T08:34:55.175Z,664
2016-12-11T08:37:27.063Z,775
2016-12-11T08:39:58.934Z,799
2016-12-11T08:42:30.771Z,698
2016-12-11T08:45:02.623Z,674
2016-12-11T08:47:34.480Z,771
2016-12-11T08:50:06.317Z,1085
2016-12-11T08:52:38.150Z,1250
2016-12-11T08:55:10.009Z,1417
2016-12-11T08:57:41.859Z,1461
2016-12-11T09:00:13.716Z,1699
2016-12-11T09:02:45.575Z,1980
2016-12-11T09:05:17.421Z,2028
2016-12-11T09:07:49.283Z,1795
2016-12-11T09:10:21.137Z,2226
2016-12-11T09:12:52.968Z,2611
2016-12-11T09:15:25.194Z,2623
2016-12-11T09:17:57.051Z,2326
2016-12-11T09:20:28.903Z,1982
2016-12-11T09:23:00.762Z,1568
2016-12-11T09:25:32.606Z,1661
2016-12-11T09:28:04.442Z,2160
2016-12-11T09:30:36.293Z,2321
2016-12-11T09:33:08.157Z,1866
2016-12-11T09:35:40.002Z,2316
2016-12-11T09:38:11.845Z,2351
2016-12-11T09:40:43.694Z,2137
2016-12-11T09:43:15.536Z,2172
2016-12-11T09:45:47.380Z,2566
2016-12-11T09:48:19.219Z,2809
2016-12-11T09:50:51.423Z,2063
2016-12-11T09:53:23.680Z,1847
2016-12-11T09:55:55.508Z,2068
2016-12-11T09:58:27.341Z,1842
2016-12-11T10:00:59.206Z,1804
2016-12-11T10:03:31.031Z,1644
2016-12-11T10:06:02.884Z,1320
2016-12-11T10:08:34.734Z,1262
2016-12-11T10:11:06.559Z,1185
2016-12-11T10:13:38.401Z,2356
2016-12-11T10:16:10.251Z,2744
2016-12-11T10:18:42.104Z,2390
2016-12-11T10:21:13.957Z,2778
2016-12-11T10:23:45.800Z,2507
2016-12-11T10:26:17.665Z,1934
2016-12-11T10:28:49.508Z,2214
2016-12-11T10:31:21.331Z,2481
2016-12-11T10:33:53.180Z,2004
2016-12-11T10:36:25.024Z,2484
2016-12-11T10:38:56.885Z,2507
2016-12-11T10:41:28.741Z,2264
2016-12-11T10:44:01.014Z,1857
2016-12-11T10:46:32.855Z,1992
2016-12-11T10:49:04.696Z,1764
2016-12-11T10:51:36.552Z,1638
2016-12-11T10:54:08.418Z,1832
2016-12-11T10:56:40.253Z,2206
2016-12-11T10:59:12.099Z,1620
2016-12-11T11:01:44.087Z,1518
2016-12-11T11:04:15.916Z,1936
2016-12-11T11:06:47.766Z,1998
2016-12-11T11:09:19.624Z,2196
2016-12-11T11:11:51.474Z,1861
2016-12-11T11:14:23.335Z,2003
2016-12-11T11:16:55.182Z,2095
2016-12-11T11:19:27.040Z,2366
2016-12-11T11:21:58.884Z,2824
2016-12-11T11:24:30.732Z,1967
2016-12-11T11:27:02.586Z,1556
2016-12-11T11:29:34.470Z,1112
2016-12-11T11:32:06.334Z,958
2016-12-11T11:34:38.173Z,1611
2016-12-11T11:37:10.042Z,1730
2016-12-11T11:39:41.937Z,2034
2016-12-11T11:42:13.799Z,1249
2016-12-11T11:44:45.645Z,1075
2016-12-11T11:47:17.502Z,994
2016-12-11T11:49:49.357Z,1132
2016-12-11T11:52:21.209Z,939
2016-12-11T11:54:53.071Z,1555
2016-12-11T11:57:24.910Z,1985
2016-12-11T11:59:56.762Z,2199
2016-12-11T12:02:28.628Z,2123
2016-12-11T12:05:00.482Z,2176
2016-12-11T12:07:32.323Z,2300
2016-12-11T12:10:04.182Z,2587
2016-12-11T12:12:36.036Z,2362
2016-12-11T12:15:07.910Z,2044
2016-12-11T12:17:39.755Z,2017
2016-12-11T12:20:11.606Z,2309
2016-12-11T12:22:43.469Z,2251
2016-12-11T12:25:15.354Z,2039
2016-12-11T12:27:47.223Z,2093
2016-12-11T12:30:19.241Z,2185
2016-12-11T12:32:51.082Z,1894
2016-12-11T12:35:22.934Z,2063
2016-12-11T12:37:54.830Z,2072
2016-12-11T12:40:26.683Z,2061
2016-12-11T12:42:58.527Z,1953
2016-12-11T12:45:30.717Z,1671
2016-12-11T12:48:02.559Z,1679
2016-12-11T12:50:34.403Z,1601
2016-12-11T12:53:06.246Z,1349
2016-12-11T12:55:38.083Z,1479
2016-12-11T12:58:09.956Z,1130
2016-12-11T13:00:41.815Z,1303
2016-12-11T13:03:13.648Z,1198
2016-12-11T13:05:45.510Z,1507
2016-12-11T13:08:17.340Z,1493
2016-12-11T13:10:49.170Z,1477
2016-12-11T13:13:21.021Z,1481
2016-12-11T13:15:52.872Z,1443
2016-12-11T13:18:24.717Z,1318
2016-12-11T13:20:56.551Z,883
2016-12-11T13:23:28.404Z,1122
2016-12-11T13:26:00.521Z,880
2016-12-11T13:28:32.355Z,967
2016-12-11T13:31:04.199Z,1977
2016-12-11T13:33:36.045Z,1506
2016-12-11T13:36:07.904Z,1439
2016-12-11T13:38:39.750Z,1399
2016-12-11T13:41:11.588Z,1507
2016-12-11T13:43:43.443Z,1622
2016-12-11T13:46:15.286Z,1716
2016-12-11T13:48:47.129Z,1657
2016-12-11T13:51:18.999Z,1599
2016-12-11T13:53:50.837Z,1379
2016-12-11T13:56:22.954Z,1201
2016-12-11T13:58:54.800Z,1108
2016-12-11T14:01:26.640Z,1053
2016-12-11T14:03:58.494Z,964
2016-12-11T14:06:30.592Z,891
2016-12-11T14:09:02.443Z,821
2016-12-11T14:11:34.309Z,830
2016-12-11T14:14:06.166Z,891
2016-12-11T14:16:38.012Z,829
2016-12-11T14:19:09.863Z,779
2016-12-11T14:21:41.824Z,641
2016-12-11T14:24:13.675Z,506
2016-12-11T14:26:45.510Z,420
2016-12-11T14:29:17.368Z,339
2016-12-11T14:31:49.218Z,253
2016-12-11T14:34:21.064Z,244
2016-12-11T14:36:52.914Z,251
2016-12-11T14:39:24.760Z,284
2016-12-11T14:41:56.605Z,141
2016-12-11T14:44:28.452Z,209
2016-12-11T14:47:00.310Z,193
2016-12-11T14:49:32.167Z,174
2016-12-11T14:52:04.012Z,159
2016-12-11T14:54:35.858Z,139
2016-12-11T14:57:07.700Z,112
2016-12-11T14:59:39.547Z,76
2016-12-11T15:02:11.405Z,61
2016-12-11T15:04:43.255Z,57
2016-12-11T15:07:15.111Z,46
2016-12-11T15:09:47.291Z,33
2016-12-11T15:12:19.131Z,25
2016-12-11T15:14:50.991Z,18
2016-12-11T15:17:22.874Z,12
2016-12-11T15:19:54.721Z,9
2016-12-11T15:22:26.550Z,6
2016-12-11T15:24:58.395Z,3
2016-12-11T15:27:30.225Z,3
2016-12-11T15:30:02.078Z,2
2016-12-11T15:32:33.928Z,1
2016-12-11T15:35:05.789Z,1
2016-12-11T15:37:37.648Z,1
2016-12-11T15:40:09.476Z,0
2016-12-11T15:42:41.315Z,0
2016-12-11T15:45:13.184Z,0
2016-12-11T15:47:45.017Z,0
2016-12-11T15:50:16.885Z,0
2016-12-11T15:52:48.743Z,0
2016-12-11T15:55:20.577Z,0
2016-12-11T15:57:52.438Z,0
2016-12-11T16:00:24.291Z,0
2016-12-11T16:02:56.150Z,0
2016-12-11T16:05:28.005Z,0
2016-12-11T16:07:59.857Z,0
2016-12-11T16:10:31.699Z,0
2016-12-11T16:13:03.543Z,0
2016-12-11T16:15:35.404Z,0
2016-12-11T16:18:07.255Z,0
2016-12-11T16:20:39.116Z,0
2016-12-11T16:23:10.969Z,0
2016-12-11T16:25:42.823Z,0
2016-12-11T16:28:14.680Z,0
2016-12-11T16:30:46.526Z,0
2016-12-11T16:33:18.367Z,0
2016-12-11T16:35:50.227Z,0
2016-12-11T16:38:22.081Z,0
2016-12-11T16:40:53.934Z,0
2016-12-11T16:43:25.803Z,0
2016-12-11T16:45:57.655Z,0
2016-12-11T16:48:29.518Z,0
2016-12-11T16:51:01.363Z,0
2016-12-11T16:53:33.234Z,0
2016-12-11T16:56:05.088Z,1
2016-12-11T16:58:36.931Z,0
2016-12-11T17:01:08.787Z,0
2016-12-11T17:03:40.640Z,0
2016-12-11T17:06:12.481Z,0
2016-12-11T17:08:44.325Z,0
2016-12-11T17:11:16.178Z,0
2016-12-11T17:13:48.025Z,0
2016-12-11T17:16:19.862Z,0
2016-12-11T17:18:51.727Z,0
2016-12-11T17:21:23.584Z,0
2016-12-11T17:23:55.425Z,0
2016-12-11T17:26:27.287Z,0
2016-12-11T17:28:59.125Z,0
2016-12-11T17:31:30.983Z,0
2016-12-11T17:34:02.843Z,0
2016-12-11T17:36:34.691Z,0
2016-12-11T17:39:06.550Z,0
2016-12-11T17:41:38.398Z,0
2016-12-11T17:44:10.256Z,0
2016-12-11T17:46:42.120Z,0
2016-12-11T17:49:13.978Z,0
2016-12-11T17:51:45.832Z,0
2016-12-11T17:54:17.679Z,0
2016-12-11T17:56:49.510Z,0
2016-12-11T17:59:21.380Z,0
2016-12-11T18:01:53.234Z,0
2016-12-11T18:04:25.084Z,0
2016-12-11T18:06:56.933Z,0
2016-12-11T18:09:28.790Z,0
2016-12-11T18:12:00.637Z,0
2016-12-11T18:14:32.475Z,0
2016-12-11T18:17:04.326Z,0
2016-12-11T18:19:36.239Z,0
2016-12-11T18:22:08.105Z,0
2016-12-11T18:24:39.972Z,0
2016-12-11T18:27:11.829Z,1
2016-12-11T18:29:43.665Z,0
2016-12-11T18:32:15.506Z,0
2016-12-11T18:34:47.356Z,0
2016-12-11T18:37:19.218Z,0
2016-12-11T18:39:51.084Z,0
2016-12-11T18:42:22.906Z,0
2016-12-11T18:44:54.735Z,0
2016-12-11T18:47:26.597Z,0
2016-12-11T18:49:58.432Z,0
2016-12-11T18:52:30.284Z,0
2016-12-11T18:55:02.156Z,0
2016-12-11T18:57:33.988Z,0
2016-12-11T19:00:05.849Z,0
2016-12-11T19:02:37.679Z,0
2016-12-11T19:05:09.504Z,0
2016-12-11T19:07:41.400Z,0
2016-12-11T19:10:13.242Z,0
2016-12-11T19:12:45.106Z,0
2016-12-11T19:15:16.946Z,0
2016-12-11T19:17:48.799Z,0
2016-12-11T19:20:20.664Z,0
2016-12-11T19:22:52.514Z,0
2016-12-11T19:25:24.344Z,0
2016-12-11T19:27:56.203Z,0
2016-12-11T19:30:28.058Z,0
2016-12-11T19:32:59.906Z,0
2016-12-11T19:35:31.776Z,0
2016-12-11T19:38:03.614Z,0
2016-12-11T19:40:35.460Z,0
2016-12-11T19:43:07.306Z,0
2016-12-11T19:45:39.145Z,0
2016-12-11T19:48:10.981Z,0
2016-12-11T19:50:42.821Z,0
2016-12-11T19:53:14.675Z,0
2016-12-11T19:55:46.542Z,0
2016-12-11T19:58:18.387Z,0
2016-12-11T20:00:50.239Z,0
2016-12-11T20:03:22.098Z,0
2016-12-11T20:05:53.950Z,0
2016-12-11T20:08:25.798Z,0
2016-12-11T20:10:57.648Z,0
2016-12-11T20:13:29.491Z,0
2016-12-11T20:16:01.336Z,0
2016-12-11T20:18:33.216Z,0
2016-12-11T20:21:05.078Z,0
2016-12-11T20:23:36.935Z,0
2016-12-11T20:26:08.783Z,0
2016-12-11T20:28:40.637Z,0
2016-12-11T20:31:12.486Z,0
2016-12-11T20:33:44.337Z,0
2016-12-11T20:36:16.182Z,0
2016-12-11T20:38:48.018Z,0
2016-12-11T20:41:19.867Z,0
2016-12-11T20:43:51.708Z,0
2016-12-11T20:46:23.556Z,0
2016-12-11T20:48:55.412Z,0
2016-12-11T20:51:27.255Z,0
2016-12-11T20:53:59.115Z,0
2016-12-11T20:56:30.974Z,0
2016-12-11T20:59:02.812Z,0
2016-12-11T21:01:34.661Z,0
2016-12-11T21:04:06.513Z,0
2016-12-11T21:06:38.356Z,0
2016-12-11T21:09:10.220Z,0
2016-12-11T21:11:42.062Z,0
2016-12-11T21:14:13.899Z,0
2016-12-11T21:16:45.755Z,0
2016-12-11T21:19:17.594Z,0
2016-12-11T21:21:49.431Z,0
2016-12-11T21:24:21.291Z,0
2016-12-11T21:26:53.145Z,0
2016-12-11T21:29:24.974Z,0
2016-12-11T21:31:56.829Z,0
2016-12-11T21:34:28.653Z,0
2016-12-11T21:37:00.494Z,0
2016-12-11T21:39:32.351Z,0
2016-12-11T21:42:04.203Z,0
2016-12-11T21:44:36.067Z,0
2016-12-11T21:47:07.910Z,0
2016-12-11T21:49:39.754Z,0
2016-12-11T21:52:11.616Z,0
2016-12-11T21:54:43.454Z,0
2016-12-11T21:57:15.309Z,0
2016-12-11T21:59:47.159Z,0
2016-12-11T22:02:18.990Z,0
2016-12-11T22:04:50.837Z,0
2016-12-11T22:07:22.696Z,0
2016-12-11T22:09:54.543Z,0
2016-12-11T22:12:26.380Z,0
2016-12-11T22:14:58.218Z,0
2016-12-11T22:17:30.069Z,0
2016-12-11T22:20:01.916Z,0
2016-12-11T22:22:33.756Z,0
2016-12-11T22:25:05.640Z,0
2016-12-11T22:27:37.497Z,0
2016-12-11T22:30:09.337Z,0
2016-12-11T22:32:41.185Z,0
2016-12-11T22:35:13.017Z,0
2016-12-11T22:37:44.845Z,0
2016-12-11T22:40:16.696Z,0
2016-12-11T22:42:48.549Z,0
2016-12-11T22:45:20.390Z,0
2016-12-11T22:47:52.225Z,0
2016-12-11T22:50:24.070Z,0
2016-12-11T22:52:55.921Z,0
2016-12-11T22:55:27.772Z,0
2016-12-11T22:57:59.630Z,0
2016-12-11T23:00:31.484Z,0
2016-12-11T23:03:03.351Z,0
2016-12-11T23:05:35.189Z,0
2016-12-11T23:08:07.028Z,0
2016-12-11T23:10:38.869Z,0
2016-12-11T23:13:10.720Z,0
2016-12-11T23:15:42.576Z,0
2016-12-11T23:18:14.439Z,0
2016-12-11T23:20:46.282Z,0
2016-12-11T23:23:18.128Z,0
2016-12-11T23:25:49.975Z,0
2016-12-11T23:28:21.825Z,0
2016-12-11T23:30:53.672Z,0
2016-12-11T23:33:25.509Z,0
2016-12-11T23:35:57.362Z,0
2016-12-11T23:38:29.208Z,0
2016-12-11T23:41:01.045Z,0
2016-12-11T23:43:32.885Z,0
2016-12-11T23:46:04.730Z,0
2016-12-11T23:48:36.582Z,0
2016-12-11T23:51:08.419Z,0
2016-12-11T23:53:40.274Z,0
2016-12-11T23:56:12.111Z,0
2016-12-11T23:58:43.946Z,0
